European Causeway — C6RG7 — position and weather

sailwx.info

Track history (hours):
 
Tides and Currents Weather Stations Pressure Air Temp Water Temp Dewpoint Dewpoint Depression Visibility Wind Speed Wind Dir Waves Ship Positions

European Causeway

Operator: P & O Irish Sea

Last reported at 2016-May-06 06:28 UTC. Time now 2016-May-06 07:27 UTC.
Position N 54°58' W 005°01'.

Length 165 m; draft 5.5 m.

Type: Passenger vessel. MMSI: 311027000.

Date/timePositionNaut miles runAvg speedWind from/ knotsBaromVisibWave heightAir tempDewpointWater temp
2016-May-06 06:28N 54°58' W 005°01'0 0.0
2016-May-06 05:31N 54°58' W 005°01'6 6.5
2016-May-06 04:33N 55°01' W 005°10'1817.7
2016-May-06 03:33N 54°54' W 005°38'6 6.1
2016-May-06 02:33N 54°51' W 005°48'0 0.0
2016-May-06 01:33N 54°51' W 005°48'6 5.5
2016-May-06 00:32N 54°54' W 005°40'1818.2
2016-May-05 23:33N 55°01' W 005°12'7 7.1
2016-May-05 22:33N 54°58' W 005°01'0 0.0
2016-May-05 21:31N 54°58' W 005°01'5 5.3
2016-May-05 20:33N 55°01' W 005°07'1716.8
2016-May-05 19:34N 54°55' W 005°34'9 8.9
2016-May-05 18:33N 54°51' W 005°48'0 0.0
2016-May-05 17:33N 54°51' W 005°48'1616.0
2016-May-05 16:34N 54°58' W 005°23'1312.8
2016-May-05 15:33N 54°58' W 005°01'0 0.0
2016-May-05 14:33N 54°58' W 005°01'1212.0
2016-May-05 13:33N 54°58' W 005°22'1716.7
2016-May-05 12:33N 54°51' W 005°48'0 0.0
2016-May-05 11:33N 54°51' W 005°48'1514.9
2016-May-05 10:34N 54°58' W 005°25'1413.7
2016-May-05 09:33N 54°58' W 005°01'0 0.1
2016-May-05 08:34N 54°58' W 005°01'1211.5
2016-May-05 07:33N 54°58' W 005°21'1717.0
2016-May-05 06:33N 54°51' W 005°48'0 0.1
2016-May-05 05:33N 54°51' W 005°48'7 6.8
2016-May-05 04:33N 54°54' W 005°38'1919.0
2016-May-05 03:33N 55°02' W 005°07'6 5.2
2016-May-05 02:29N 54°58' W 005°01'0 0.0
2016-May-05 01:29N 54°58' W 005°01'5 5.7
2016-May-05 00:31N 55°02' W 005°08'1819.1
2016-May-04 23:33N 54°54' W 005°37'7 7.0
2016-May-04 22:34N 54°51' W 005°48'0 0.0
2016-May-04 21:33N 54°51' W 005°48'4 4.2
2016-May-04 20:33N 54°53' W 005°42'1717.0
2016-May-04 19:33N 55°00' W 005°15'9 8.5
2016-May-04 18:33N 54°58' W 005°01'0 0.0
2016-May-04 17:33N 54°58' W 005°01'1110.8
2016-May-04 16:33N 54°58' W 005°20'1817.5
2016-May-04 15:33N 54°51' W 005°48'0 0.2
2016-May-04 14:33N 54°51' W 005°48'1313.5
2016-May-04 13:34N 54°57' W 005°28'1414.3
2016-May-04 12:33N 54°59' W 005°03'2 1.5
2016-May-04 11:33N 54°58' W 005°01'1010.6
2016-May-04 10:33N 54°59' W 005°19'1817.8
2016-May-04 09:33N 54°51' W 005°48'1 0.6
2016-May-04 08:34N 54°51' W 005°48'1313.2
2016-May-04 07:33N 54°57' W 005°28'1514.6
2016-May-04 06:33N 54°59' W 005°02'1 1.3
2016-May-04 05:33N 54°58' W 005°01'5 4.9
2016-May-04 04:30N 55°02' W 005°07'1516.1
2016-May-04 03:33N 54°55' W 005°31'1110.7
2016-May-04 02:34N 54°51' W 005°48'0 0.0
2016-May-04 01:33N 54°51' W 005°48'7 6.8
2016-May-04 00:33N 54°55' W 005°38'1817.6
2016-May-03 23:33N 55°01' W 005°10'6 5.6
2016-May-03 22:28N 54°58' W 005°01'0 0.0
2016-May-03 21:22N 54°58' W 005°01'5 6.5
2016-May-03 20:33N 55°02' W 005°07'1717.5
2016-May-03 19:34N 54°54' W 005°35'8 8.2
2016-May-03 18:33N 54°51' W 005°48'0 0.0
2016-May-03 17:33N 54°51' W 005°48'1413.9
2016-May-03 16:33N 54°57' W 005°27'1414.4
2016-May-03 15:34N 54°58' W 005°02'0 0.5
2016-May-03 14:33N 54°58' W 005°01'1110.9
2016-May-03 13:33N 54°58' W 005°20'1817.6
2016-May-03 12:34N 54°51' W 005°48'0 0.2
2016-May-03 11:33N 54°51' W 005°48'1312.6
2016-May-03 10:34N 54°57' W 005°29'1515.1
2016-May-03 09:33N 54°59' W 005°03'1 1.5
2016-May-03 08:33N 54°58' W 005°01'1010.5
2016-May-03 07:33N 54°59' W 005°19'1716.9
2016-May-03 06:33N 54°52' W 005°46'1 1.4
2016-May-03 05:33N 54°51' W 005°48'4 4.0
2016-May-03 04:33N 54°53' W 005°42'1716.7
2016-May-03 03:33N 54°60' W 005°16'9 8.8
2016-May-03 02:34N 54°58' W 005°01'0 0.0
2016-May-03 01:33N 54°58' W 005°01'5 4.9
2016-May-03 00:28N 55°02' W 005°07'1718.3
2016-May-02 23:33N 54°55' W 005°34'9 9.0
2016-May-02 22:33N 54°51' W 005°48'0 0.0
2016-May-02 21:33N 54°51' W 005°48'3 2.8
2016-May-02 20:34N 54°53' W 005°44'1717.1
2016-May-02 19:34N 54°60' W 005°17'10 8.8
2016-May-02 18:29N 54°58' W 005°01'0 0.0
2016-May-02 17:29N 54°58' W 005°01'1111.9
2016-May-02 16:33N 54°58' W 005°20'1717.3
2016-May-02 15:33N 54°51' W 005°48'0 0.0
2016-May-02 14:33N 54°51' W 005°48'1312.6
2016-May-02 13:33N 54°57' W 005°29'1514.8
2016-May-02 12:32N 54°59' W 005°03'1 1.4
2016-May-02 11:31N 54°58' W 005°01'1111.6
2016-May-02 10:34N 54°59' W 005°20'1717.5
2016-May-02 09:34N 54°51' W 005°48'0 0.1
2016-May-02 08:33N 54°51' W 005°48'1312.8
2016-May-02 07:33N 54°57' W 005°28'1514.1
2016-May-02 06:31N 54°59' W 005°03'2 2.0
2016-May-02 05:33N 54°58' W 005°01'2 2.2
2016-May-02 04:33N 54°59' W 005°03'1717.4
2016-May-02 03:34N 54°55' W 005°32'10 9.7
2016-May-02 02:33N 54°51' W 005°48'0 0.0
2016-May-02 01:33N 54°51' W 005°48'0 0.0
2016-May-02 00:33N 54°51' W 005°48'3 3.4
2016-May-01 23:34N 54°53' W 005°43'2020.1
2016-May-01 22:34N 55°01' W 005°11'7 6.8
2016-May-01 21:31N 54°58' W 005°01'5 4.9
2016-May-01 20:31N 55°02' W 005°06'1717.2
2016-May-01 19:33N 54°55' W 005°33'10 9.0
2016-May-01 18:29N 54°51' W 005°48'0 0.0
2016-May-01 17:32N 54°51' W 005°48'1212.8
2016-May-01 16:34N 54°57' W 005°29'1514.9
2016-May-01 15:33N 54°59' W 005°03'2 2.1
2016-May-01 14:31N 54°58' W 005°01'6 5.8
2016-May-01 13:33N 55°01' W 005°08'2020.1
2016-May-01 12:33N 54°53' W 005°40'5 4.7
2016-May-01 11:28N 54°51' W 005°48'1213.4
2016-May-01 10:34N 54°57' W 005°29'1615.1
2016-May-01 09:32N 54°59' W 005°02'1 1.4
2016-May-01 08:33N 54°58' W 005°01'9 9.0
2016-May-01 07:33N 54°60' W 005°16'1818.2
2016-May-01 06:34N 54°52' W 005°45'2 2.1
2016-May-01 05:30N 54°51' W 005°48'0 0.0
2016-May-01 04:33N 54°51' W 005°48'0 0.0
2016-May-01 03:33N 54°51' W 005°48'0 0.0
2016-May-01 02:27N 54°51' W 005°48'0 0.0
2016-May-01 01:33N 54°51' W 005°48'0 0.0
2016-May-01 00:27N 54°51' W 005°48'0 0.0
2016-Apr-30 23:33N 54°51' W 005°48'0 0.0
2016-Apr-30 22:33N 54°51' W 005°48'0 0.0
2016-Apr-30 21:33N 54°51' W 005°48'4 4.1
2016-Apr-30 20:33N 54°53' W 005°42'1616.1
2016-Apr-30 19:33N 55°00' W 005°17'9 8.7
2016-Apr-30 18:29N 54°58' W 005°01'0 0.0
2016-Apr-30 17:30N 54°58' W 005°01'1111.9
2016-Apr-30 16:34N 54°58' W 005°20'1717.4
2016-Apr-30 15:33N 54°51' W 005°48'0 0.1
2016-Apr-30 14:30N 54°51' W 005°48'1414.9
2016-Apr-30 13:33N 54°58' W 005°26'1412.4
2016-Apr-30 12:24N 54°58' W 005°01'0 0.0
2016-Apr-30 11:33N 54°58' W 005°01'1010.6
2016-Apr-30 10:34N 54°58' W 005°19'1818.1
2016-Apr-30 09:33N 54°51' W 005°48'0 0.1
2016-Apr-30 08:33N 54°51' W 005°48'1313.3
2016-Apr-30 07:34N 54°57' W 005°28'1514.9
2016-Apr-30 06:33N 54°58' W 005°02'0 0.5
2016-Apr-30 05:33N 54°58' W 005°01'5 5.2
2016-Apr-30 04:33N 55°02' W 005°07'1615.8
2016-Apr-30 03:34N 54°55' W 005°32'1010.1
2016-Apr-30 02:33N 54°51' W 005°48'0 0.0
2016-Apr-30 01:33N 54°51' W 005°48'5 4.9
2016-Apr-30 00:34N 54°54' W 005°41'1615.8
2016-Apr-29 23:34N 54°60' W 005°16'9 8.1
2016-Apr-29 22:29N 54°58' W 005°01'5 2.5
2016-Apr-29 20:31N 55°01' W 005°07'1717.7
2016-Apr-29 19:33N 54°55' W 005°33'9 8.9
2016-Apr-29 18:32N 54°51' W 005°48'0 0.0
2016-Apr-29 17:33N 54°51' W 005°48'1313.4
2016-Apr-29 16:34N 54°57' W 005°28'1514.6
2016-Apr-29 15:33N 54°58' W 005°02'1 1.0
2016-Apr-29 14:33N 54°58' W 005°01'1110.8
2016-Apr-29 13:33N 54°58' W 005°20'1817.3
2016-Apr-29 12:32N 54°51' W 005°48'0 0.0
2016-Apr-29 11:33N 54°51' W 005°48'1818.1
2016-Apr-29 10:34N 54°60' W 005°21'1111.4
2016-Apr-29 09:33N 54°58' W 005°01'0 0.0
2016-Apr-29 08:33N 54°58' W 005°01'1010.3
2016-Apr-29 07:33N 54°58' W 005°19'1817.0
2016-Apr-29 06:31N 54°51' W 005°48'0 0.5
2016-Apr-29 05:33N 54°51' W 005°48'5 5.0
2016-Apr-29 04:34N 54°54' W 005°41'1818.4
2016-Apr-29 03:33N 55°01' W 005°11'7 6.8
2016-Apr-29 02:32N 54°58' W 005°01'0 0.0
2016-Apr-29 01:32N 54°58' W 005°01'5 5.1
2016-Apr-29 00:30N 55°02' W 005°07'1616.6
2016-Apr-28 23:34N 54°55' W 005°32'10 9.8
2016-Apr-28 22:32N 54°51' W 005°48'0 0.0
2016-Apr-28 21:26N 54°51' W 005°48'3 3.8
2016-Apr-28 20:33N 54°53' W 005°43'1717.3
2016-Apr-28 19:33N 55°00' W 005°16'9 8.6
2016-Apr-28 18:32N 54°58' W 005°01'0 0.0
2016-Apr-28 17:34N 54°58' W 005°01'1110.8
2016-Apr-28 16:33N 54°59' W 005°20'1817.3
2016-Apr-28 15:32N 54°51' W 005°48'0 0.3
2016-Apr-28 14:33N 54°51' W 005°48'1312.8
2016-Apr-28 13:33N 54°57' W 005°28'1514.7
2016-Apr-28 12:33N 54°59' W 005°03'2 1.5
2016-Apr-28 11:29N 54°58' W 005°01'1010.3
2016-Apr-28 10:33N 54°59' W 005°18'1918.0
2016-Apr-28 09:30N 54°51' W 005°48'0 0.4
2016-Apr-28 08:33N 54°51' W 005°48'1212.5
2016-Apr-28 07:33N 54°57' W 005°29'1514.1
2016-Apr-28 06:29N 54°59' W 005°03'2 1.7
2016-Apr-28 05:33N 54°58' W 005°01'5 5.1
2016-Apr-28 04:33N 55°01' W 005°07'1918.3
2016-Apr-28 03:31N 54°54' W 005°37'7 7.1
2016-Apr-28 02:33N 54°51' W 005°48'0 0.0
2016-Apr-28 01:33N 54°51' W 005°48'5 5.2
2016-Apr-28 00:34N 54°54' W 005°40'1717.4
2016-Apr-27 23:34N 55°03' W 005°14'9 9.0
2016-Apr-27 22:33N 54°58' W 005°01'0 0.0
2016-Apr-27 21:27N 54°58' W 005°01'5 5.8
2016-Apr-27 20:33N 55°02' W 005°07'1818.0
2016-Apr-27 19:34N 54°54' W 005°36'8 7.8
2016-Apr-27 18:33N 54°51' W 005°48'0 0.0
2016-Apr-27 17:33N 54°51' W 005°48'1413.6
2016-Apr-27 16:33N 54°57' W 005°27'1514.6
2016-Apr-27 15:33N 54°58' W 005°02'1 0.8
2016-Apr-27 14:33N 54°58' W 005°01'1110.8
2016-Apr-27 13:33N 54°58' W 005°20'1817.2
2016-Apr-27 12:32N 54°51' W 005°48'0 0.2
2016-Apr-27 11:32N 54°51' W 005°48'1212.6
2016-Apr-27 10:34N 54°57' W 005°29'1514.8
2016-Apr-27 09:32N 54°59' W 005°03'2 1.7
2016-Apr-27 08:33N 54°58' W 005°01'1010.2
2016-Apr-27 07:33N 54°58' W 005°19'1817.9
2016-Apr-27 06:34N 54°52' W 005°47'1 0.8
2016-Apr-27 05:33N 54°51' W 005°48'5 5.5
2016-Apr-27 04:33N 54°54' W 005°40'2019.7
2016-Apr-27 03:33N 55°01' W 005°08'5 5.4
2016-Apr-27 02:33N 54°58' W 005°01'0 0.0
2016-Apr-27 01:33N 54°58' W 005°01'6 6.3
2016-Apr-27 00:33N 55°01' W 005°10'1616.2
2016-Apr-26 23:33N 54°56' W 005°36'8 8.1
2016-Apr-26 22:31N 54°51' W 005°48'0 0.0
2016-Apr-26 21:31N 54°51' W 005°48'3 2.9
2016-Apr-26 20:33N 54°53' W 005°44'1818.0
2016-Apr-26 19:34N 55°00' W 005°16'9 8.6
2016-Apr-26 18:31N 54°58' W 005°01'0 0.0
2016-Apr-26 17:33N 54°58' W 005°01'10 9.9
2016-Apr-26 16:33N 54°59' W 005°18'1918.5
2016-Apr-26 15:33N 54°51' W 005°48'0 0.4
2016-Apr-26 14:33N 54°51' W 005°48'1211.7
2016-Apr-26 13:33N 54°56' W 005°30'1614.9
2016-Apr-26 12:30N 54°59' W 005°03'2 1.8
2016-Apr-26 11:33N 54°58' W 005°01'9 9.0
2016-Apr-26 10:34N 54°59' W 005°16'1918.5
2016-Apr-26 09:33N 54°52' W 005°46'2 1.5
2016-Apr-26 08:33N 54°51' W 005°48'1616.1
2016-Apr-26 07:34N 54°58' W 005°23'1311.9
2016-Apr-26 06:29N 54°58' W 005°01'  
Track history (hours):
 
Tides and Currents Weather Stations Pressure Air Temp Water Temp Dewpoint Dewpoint Depression Visibility Wind Speed Wind Dir Waves Ship Positions

European Causeway

Operator: P & O Irish Sea

Last reported at 2016-May-06 06:28 UTC. Time now 2016-May-06 07:27 UTC.
Position N 54°58' W 005°01'.

Length 165 m; draft 5.5 m.

Type: Passenger vessel. MMSI: 311027000.

Date/timePositionNaut miles runAvg speedWind from/ knotsBaromVisibWave heightAir tempDewpointWater temp
2016-May-06 06:28N 54°58' W 005°01'0 0.0
2016-May-06 05:31N 54°58' W 005°01'6 6.5
2016-May-06 04:33N 55°01' W 005°10'1817.7
2016-May-06 03:33N 54°54' W 005°38'6 6.1
2016-May-06 02:33N 54°51' W 005°48'0 0.0
2016-May-06 01:33N 54°51' W 005°48'6 5.5
2016-May-06 00:32N 54°54' W 005°40'1818.2
2016-May-05 23:33N 55°01' W 005°12'7 7.1
2016-May-05 22:33N 54°58' W 005°01'0 0.0
2016-May-05 21:31N 54°58' W 005°01'5 5.3
2016-May-05 20:33N 55°01' W 005°07'1716.8
2016-May-05 19:34N 54°55' W 005°34'9 8.9
2016-May-05 18:33N 54°51' W 005°48'0 0.0
2016-May-05 17:33N 54°51' W 005°48'1616.0
2016-May-05 16:34N 54°58' W 005°23'1312.8
2016-May-05 15:33N 54°58' W 005°01'0 0.0
2016-May-05 14:33N 54°58' W 005°01'1212.0
2016-May-05 13:33N 54°58' W 005°22'1716.7
2016-May-05 12:33N 54°51' W 005°48'0 0.0
2016-May-05 11:33N 54°51' W 005°48'1514.9
2016-May-05 10:34N 54°58' W 005°25'1413.7
2016-May-05 09:33N 54°58' W 005°01'0 0.1
2016-May-05 08:34N 54°58' W 005°01'1211.5
2016-May-05 07:33N 54°58' W 005°21'1717.0
2016-May-05 06:33N 54°51' W 005°48'0 0.1
2016-May-05 05:33N 54°51' W 005°48'7 6.8
2016-May-05 04:33N 54°54' W 005°38'1919.0
2016-May-05 03:33N 55°02' W 005°07'6 5.2
2016-May-05 02:29N 54°58' W 005°01'0 0.0
2016-May-05 01:29N 54°58' W 005°01'5 5.7
2016-May-05 00:31N 55°02' W 005°08'1819.1
2016-May-04 23:33N 54°54' W 005°37'7 7.0
2016-May-04 22:34N 54°51' W 005°48'0 0.0
2016-May-04 21:33N 54°51' W 005°48'4 4.2
2016-May-04 20:33N 54°53' W 005°42'1717.0
2016-May-04 19:33N 55°00' W 005°15'9 8.5
2016-May-04 18:33N 54°58' W 005°01'0 0.0
2016-May-04 17:33N 54°58' W 005°01'1110.8
2016-May-04 16:33N 54°58' W 005°20'1817.5
2016-May-04 15:33N 54°51' W 005°48'0 0.2
2016-May-04 14:33N 54°51' W 005°48'1313.5
2016-May-04 13:34N 54°57' W 005°28'1414.3
2016-May-04 12:33N 54°59' W 005°03'2 1.5
2016-May-04 11:33N 54°58' W 005°01'1010.6
2016-May-04 10:33N 54°59' W 005°19'1817.8
2016-May-04 09:33N 54°51' W 005°48'1 0.6
2016-May-04 08:34N 54°51' W 005°48'1313.2
2016-May-04 07:33N 54°57' W 005°28'1514.6
2016-May-04 06:33N 54°59' W 005°02'1 1.3
2016-May-04 05:33N 54°58' W 005°01'5 4.9
2016-May-04 04:30N 55°02' W 005°07'1516.1
2016-May-04 03:33N 54°55' W 005°31'1110.7
2016-May-04 02:34N 54°51' W 005°48'0 0.0
2016-May-04 01:33N 54°51' W 005°48'7 6.8
2016-May-04 00:33N 54°55' W 005°38'1817.6
2016-May-03 23:33N 55°01' W 005°10'6 5.6
2016-May-03 22:28N 54°58' W 005°01'0 0.0
2016-May-03 21:22N 54°58' W 005°01'5 6.5
2016-May-03 20:33N 55°02' W 005°07'1717.5
2016-May-03 19:34N 54°54' W 005°35'8 8.2
2016-May-03 18:33N 54°51' W 005°48'0 0.0
2016-May-03 17:33N 54°51' W 005°48'1413.9
2016-May-03 16:33N 54°57' W 005°27'1414.4
2016-May-03 15:34N 54°58' W 005°02'0 0.5
2016-May-03 14:33N 54°58' W 005°01'1110.9
2016-May-03 13:33N 54°58' W 005°20'1817.6
2016-May-03 12:34N 54°51' W 005°48'0 0.2
2016-May-03 11:33N 54°51' W 005°48'1312.6
2016-May-03 10:34N 54°57' W 005°29'1515.1
2016-May-03 09:33N 54°59' W 005°03'1 1.5
2016-May-03 08:33N 54°58' W 005°01'1010.5
2016-May-03 07:33N 54°59' W 005°19'1716.9
2016-May-03 06:33N 54°52' W 005°46'1 1.4
2016-May-03 05:33N 54°51' W 005°48'4 4.0
2016-May-03 04:33N 54°53' W 005°42'1716.7
2016-May-03 03:33N 54°60' W 005°16'9 8.8
2016-May-03 02:34N 54°58' W 005°01'0 0.0
2016-May-03 01:33N 54°58' W 005°01'5 4.9
2016-May-03 00:28N 55°02' W 005°07'1718.3
2016-May-02 23:33N 54°55' W 005°34'9 9.0
2016-May-02 22:33N 54°51' W 005°48'0 0.0
2016-May-02 21:33N 54°51' W 005°48'3 2.8
2016-May-02 20:34N 54°53' W 005°44'1717.1
2016-May-02 19:34N 54°60' W 005°17'10 8.8
2016-May-02 18:29N 54°58' W 005°01'0 0.0
2016-May-02 17:29N 54°58' W 005°01'1111.9
2016-May-02 16:33N 54°58' W 005°20'1717.3
2016-May-02 15:33N 54°51' W 005°48'0 0.0
2016-May-02 14:33N 54°51' W 005°48'1312.6
2016-May-02 13:33N 54°57' W 005°29'1514.8
2016-May-02 12:32N 54°59' W 005°03'1 1.4
2016-May-02 11:31N 54°58' W 005°01'1111.6
2016-May-02 10:34N 54°59' W 005°20'1717.5
2016-May-02 09:34N 54°51' W 005°48'0 0.1
2016-May-02 08:33N 54°51' W 005°48'1312.8
2016-May-02 07:33N 54°57' W 005°28'1514.1
2016-May-02 06:31N 54°59' W 005°03'2 2.0
2016-May-02 05:33N 54°58' W 005°01'2 2.2
2016-May-02 04:33N 54°59' W 005°03'1717.4
2016-May-02 03:34N 54°55' W 005°32'10 9.7
2016-May-02 02:33N 54°51' W 005°48'0 0.0
2016-May-02 01:33N 54°51' W 005°48'0 0.0
2016-May-02 00:33N 54°51' W 005°48'3 3.4
2016-May-01 23:34N 54°53' W 005°43'2020.1
2016-May-01 22:34N 55°01' W 005°11'7 6.8
2016-May-01 21:31N 54°58' W 005°01'5 4.9
2016-May-01 20:31N 55°02' W 005°06'1717.2
2016-May-01 19:33N 54°55' W 005°33'10 9.0
2016-May-01 18:29N 54°51' W 005°48'0 0.0
2016-May-01 17:32N 54°51' W 005°48'1212.8
2016-May-01 16:34N 54°57' W 005°29'1514.9
2016-May-01 15:33N 54°59' W 005°03'2 2.1
2016-May-01 14:31N 54°58' W 005°01'6 5.8
2016-May-01 13:33N 55°01' W 005°08'2020.1
2016-May-01 12:33N 54°53' W 005°40'5 4.7
2016-May-01 11:28N 54°51' W 005°48'1213.4
2016-May-01 10:34N 54°57' W 005°29'1615.1
2016-May-01 09:32N 54°59' W 005°02'1 1.4
2016-May-01 08:33N 54°58' W 005°01'9 9.0
2016-May-01 07:33N 54°60' W 005°16'1818.2
2016-May-01 06:34N 54°52' W 005°45'2 2.1
2016-May-01 05:30N 54°51' W 005°48'0 0.0
2016-May-01 04:33N 54°51' W 005°48'0 0.0
2016-May-01 03:33N 54°51' W 005°48'0 0.0
2016-May-01 02:27N 54°51' W 005°48'0 0.0
2016-May-01 01:33N 54°51' W 005°48'0 0.0
2016-May-01 00:27N 54°51' W 005°48'0 0.0
2016-Apr-30 23:33N 54°51' W 005°48'0 0.0
2016-Apr-30 22:33N 54°51' W 005°48'0 0.0
2016-Apr-30 21:33N 54°51' W 005°48'4 4.1
2016-Apr-30 20:33N 54°53' W 005°42'1616.1
2016-Apr-30 19:33N 55°00' W 005°17'9 8.7
2016-Apr-30 18:29N 54°58' W 005°01'0 0.0
2016-Apr-30 17:30N 54°58' W 005°01'1111.9
2016-Apr-30 16:34N 54°58' W 005°20'1717.4
2016-Apr-30 15:33N 54°51' W 005°48'0 0.1
2016-Apr-30 14:30N 54°51' W 005°48'1414.9
2016-Apr-30 13:33N 54°58' W 005°26'1412.4
2016-Apr-30 12:24N 54°58' W 005°01'0 0.0
2016-Apr-30 11:33N 54°58' W 005°01'1010.6
2016-Apr-30 10:34N 54°58' W 005°19'1818.1
2016-Apr-30 09:33N 54°51' W 005°48'0 0.1
2016-Apr-30 08:33N 54°51' W 005°48'1313.3
2016-Apr-30 07:34N 54°57' W 005°28'1514.9
2016-Apr-30 06:33N 54°58' W 005°02'0 0.5
2016-Apr-30 05:33N 54°58' W 005°01'5 5.2
2016-Apr-30 04:33N 55°02' W 005°07'1615.8
2016-Apr-30 03:34N 54°55' W 005°32'1010.1
2016-Apr-30 02:33N 54°51' W 005°48'0 0.0
2016-Apr-30 01:33N 54°51' W 005°48'5 4.9
2016-Apr-30 00:34N 54°54' W 005°41'1615.8
2016-Apr-29 23:34N 54°60' W 005°16'9 8.1
2016-Apr-29 22:29N 54°58' W 005°01'5 2.5
2016-Apr-29 20:31N 55°01' W 005°07'1717.7
2016-Apr-29 19:33N 54°55' W 005°33'9 8.9
2016-Apr-29 18:32N 54°51' W 005°48'0 0.0
2016-Apr-29 17:33N 54°51' W 005°48'1313.4
2016-Apr-29 16:34N 54°57' W 005°28'1514.6
2016-Apr-29 15:33N 54°58' W 005°02'1 1.0
2016-Apr-29 14:33N 54°58' W 005°01'1110.8
2016-Apr-29 13:33N 54°58' W 005°20'1817.3
2016-Apr-29 12:32N 54°51' W 005°48'0 0.0
2016-Apr-29 11:33N 54°51' W 005°48'1818.1
2016-Apr-29 10:34N 54°60' W 005°21'1111.4
2016-Apr-29 09:33N 54°58' W 005°01'0 0.0
2016-Apr-29 08:33N 54°58' W 005°01'1010.3
2016-Apr-29 07:33N 54°58' W 005°19'1817.0
2016-Apr-29 06:31N 54°51' W 005°48'0 0.5
2016-Apr-29 05:33N 54°51' W 005°48'5 5.0
2016-Apr-29 04:34N 54°54' W 005°41'1818.4
2016-Apr-29 03:33N 55°01' W 005°11'7 6.8
2016-Apr-29 02:32N 54°58' W 005°01'0 0.0
2016-Apr-29 01:32N 54°58' W 005°01'5 5.1
2016-Apr-29 00:30N 55°02' W 005°07'1616.6
2016-Apr-28 23:34N 54°55' W 005°32'10 9.8
2016-Apr-28 22:32N 54°51' W 005°48'0 0.0
2016-Apr-28 21:26N 54°51' W 005°48'3 3.8
2016-Apr-28 20:33N 54°53' W 005°43'1717.3
2016-Apr-28 19:33N 55°00' W 005°16'9 8.6
2016-Apr-28 18:32N 54°58' W 005°01'0 0.0
2016-Apr-28 17:34N 54°58' W 005°01'1110.8
2016-Apr-28 16:33N 54°59' W 005°20'1817.3
2016-Apr-28 15:32N 54°51' W 005°48'0 0.3
2016-Apr-28 14:33N 54°51' W 005°48'1312.8
2016-Apr-28 13:33N 54°57' W 005°28'1514.7
2016-Apr-28 12:33N 54°59' W 005°03'2 1.5
2016-Apr-28 11:29N 54°58' W 005°01'1010.3
2016-Apr-28 10:33N 54°59' W 005°18'1918.0
2016-Apr-28 09:30N 54°51' W 005°48'0 0.4
2016-Apr-28 08:33N 54°51' W 005°48'1212.5
2016-Apr-28 07:33N 54°57' W 005°29'1514.1
2016-Apr-28 06:29N 54°59' W 005°03'2 1.7
2016-Apr-28 05:33N 54°58' W 005°01'5 5.1
2016-Apr-28 04:33N 55°01' W 005°07'1918.3
2016-Apr-28 03:31N 54°54' W 005°37'7 7.1
2016-Apr-28 02:33N 54°51' W 005°48'0 0.0
2016-Apr-28 01:33N 54°51' W 005°48'5 5.2
2016-Apr-28 00:34N 54°54' W 005°40'1717.4
2016-Apr-27 23:34N 55°03' W 005°14'9 9.0
2016-Apr-27 22:33N 54°58' W 005°01'0 0.0
2016-Apr-27 21:27N 54°58' W 005°01'5 5.8
2016-Apr-27 20:33N 55°02' W 005°07'1818.0
2016-Apr-27 19:34N 54°54' W 005°36'8 7.8
2016-Apr-27 18:33N 54°51' W 005°48'0 0.0
2016-Apr-27 17:33N 54°51' W 005°48'1413.6
2016-Apr-27 16:33N 54°57' W 005°27'1514.6
2016-Apr-27 15:33N 54°58' W 005°02'1 0.8
2016-Apr-27 14:33N 54°58' W 005°01'1110.8
2016-Apr-27 13:33N 54°58' W 005°20'1817.2
2016-Apr-27 12:32N 54°51' W 005°48'0 0.2
2016-Apr-27 11:32N 54°51' W 005°48'1212.6
2016-Apr-27 10:34N 54°57' W 005°29'1514.8
2016-Apr-27 09:32N 54°59' W 005°03'2 1.7
2016-Apr-27 08:33N 54°58' W 005°01'1010.2
2016-Apr-27 07:33N 54°58' W 005°19'1817.9
2016-Apr-27 06:34N 54°52' W 005°47'1 0.8
2016-Apr-27 05:33N 54°51' W 005°48'5 5.5
2016-Apr-27 04:33N 54°54' W 005°40'2019.7
2016-Apr-27 03:33N 55°01' W 005°08'5 5.4
2016-Apr-27 02:33N 54°58' W 005°01'0 0.0
2016-Apr-27 01:33N 54°58' W 005°01'6 6.3
2016-Apr-27 00:33N 55°01' W 005°10'1616.2
2016-Apr-26 23:33N 54°56' W 005°36'8 8.1
2016-Apr-26 22:31N 54°51' W 005°48'0 0.0
2016-Apr-26 21:31N 54°51' W 005°48'3 2.9
2016-Apr-26 20:33N 54°53' W 005°44'1818.0
2016-Apr-26 19:34N 55°00' W 005°16'9 8.6
2016-Apr-26 18:31N 54°58' W 005°01'0 0.0
2016-Apr-26 17:33N 54°58' W 005°01'10 9.9
2016-Apr-26 16:33N 54°59' W 005°18'1918.5
2016-Apr-26 15:33N 54°51' W 005°48'0 0.4
2016-Apr-26 14:33N 54°51' W 005°48'1211.7
2016-Apr-26 13:33N 54°56' W 005°30'1614.9
2016-Apr-26 12:30N 54°59' W 005°03'2 1.8
2016-Apr-26 11:33N 54°58' W 005°01'9 9.0
2016-Apr-26 10:34N 54°59' W 005°16'1918.5
2016-Apr-26 09:33N 54°52' W 005°46'2 1.5
2016-Apr-26 08:33N 54°51' W 005°48'1616.1
2016-Apr-26 07:34N 54°58' W 005°23'1311.9
2016-Apr-26 06:29N 54°58' W 005°01'  

Dump ship's entire track history